Oregon Trader — 9HA3880 — position and weather

sailwx.info

Track history (hours):
 
Tides and Currents Weather Stations Pressure Air Temp Water Temp Dewpoint Dewpoint Depression Visibility Wind Speed Wind Dir Waves Ship Positions

Oregon Trader

Last reported at 2017-Sep-24 21:58 UTC. Time now 2017-Sep-25 01:06 UTC.
Position N 49°52' W 002°33'.

Length 212 m; draft 8 m.

Type: Ship (hazmat cat A). MMSI: 256304000.

Date/timePositionNaut miles runAvg speedWind from/ knotsBaromVisibWave heightAir tempDewpointWater temp
2017-Sep-24 21:58N 49°52' W 002°33'715.6
2017-Sep-24 21:30N 49°50' W 002°44'815.3
2017-Sep-24 21:00N 49°47' W 002°55'814.8
2017-Sep-24 20:30N 49°44' W 003°06'714.8
2017-Sep-24 20:01N 49°41' W 003°15'914.7
2017-Sep-24 19:23N 49°36' W 003°28'815.5
2017-Sep-24 18:54N 49°32' W 003°38'1016.3
2017-Sep-24 18:17N 49°27' W 003°51'2216.0
2017-Sep-24 16:53N 49°16' W 004°20'4515.0
2017-Sep-24 13:55N 48°53' W 005°19'612.8
2017-Sep-24 13:29N 48°50' W 005°26'7415.3
2017-Sep-24 08:38N 47°47' W 006°23'  
2017-Sep-20 12:03N 32°18' W 010°06'114.4
2017-Sep-20 12:00N 32°17' W 010°06'1814.6
2017-Sep-20 10:48N 32°04' W 010°21'1614.6
2017-Sep-20 09:42N 31°52' W 010°33'514.6
2017-Sep-20 09:21N 31°48' W 010°37'514.4
2017-Sep-20 08:58N 31°44' W 010°40'4 7.2
2017-Sep-20 08:29N 31°40' W 010°41'814.4
2017-Sep-20 07:56N 31°34' W 010°47'2013.7
2017-Sep-20 06:29N 31°17' W 010°60'912.8
2017-Sep-20 05:47N 31°10' W 011°06'412.6
2017-Sep-20 05:29N 31°07' W 011°08'613.4
2017-Sep-20 05:00N 31°02' W 011°13'713.7
2017-Sep-20 04:30N 30°56' W 011°17'713.5
2017-Sep-20 04:00N 30°50' W 011°22'713.6
2017-Sep-20 03:30N 30°45' W 011°26'713.8
2017-Sep-20 02:59N 30°39' W 011°30'713.7
2017-Sep-20 02:29N 30°33' W 011°35'613.8
2017-Sep-20 02:00N 30°27' W 011°39'713.6
2017-Sep-20 01:30N 30°22' W 011°44'713.8
2017-Sep-20 01:00N 30°16' W 011°48'713.9
2017-Sep-20 00:31N 30°10' W 011°52'714.1
2017-Sep-20 00:00N 30°04' W 011°57'713.9
2017-Sep-19 23:28N 29°58' W 012°01'714.0
2017-Sep-19 23:00N 29°52' W 012°05'714.1
2017-Sep-19 22:30N 29°46' W 012°10'714.1
2017-Sep-19 22:00N 29°40' W 012°14'714.2
2017-Sep-19 21:30N 29°35' W 012°18'714.1
2017-Sep-19 21:00N 29°28' W 012°23'714.1
2017-Sep-19 20:30N 29°23' W 012°27'1214.2
2017-Sep-19 19:42N 29°14' W 012°35'314.2
2017-Sep-19 19:30N 29°11' W 012°37'714.0
2017-Sep-19 19:00N 29°06' W 012°42'713.7
2017-Sep-19 18:30N 29°00' W 012°46'713.7
2017-Sep-19 18:00N 28°54' W 012°51'714.1
2017-Sep-19 17:30N 28°49' W 012°55'913.9
2017-Sep-19 16:53N 28°41' W 013°00'513.7
2017-Sep-19 16:30N 28°37' W 013°03'713.8
2017-Sep-19 16:00N 28°31' W 013°08'714.0
2017-Sep-19 15:30N 28°25' W 013°12'714.2
2017-Sep-19 15:00N 28°19' W 013°17'714.0
2017-Sep-19 14:30N 28°14' W 013°21'714.1
2017-Sep-19 14:00N 28°08' W 013°26'714.3
2017-Sep-19 13:30N 28°02' W 013°30'714.5
2017-Sep-19 13:00N 27°56' W 013°34'714.6
2017-Sep-19 12:30N 27°50' W 013°39'815.7
2017-Sep-19 12:00N 27°43' W 013°44'816.4
2017-Sep-19 11:30N 27°36' W 013°49'917.1
2017-Sep-19 11:00N 27°29' W 013°55'816.8
2017-Sep-19 10:30N 27°22' W 014°00'917.1
2017-Sep-19 10:00N 27°15' W 014°05'917.1
2017-Sep-19 09:30N 27°08' W 014°10'816.4
2017-Sep-19 09:00N 27°01' W 014°15'816.5
2017-Sep-19 08:30N 26°54' W 014°21'816.4
2017-Sep-19 08:00N 26°48' W 014°26'916.2
2017-Sep-19 07:28N 26°40' W 014°31'1515.6
2017-Sep-19 06:33N 26°28' W 014°40'215.2
2017-Sep-19 06:26N 26°27' W 014°41'11315.2
2017-Sep-18 23:01N 24°53' W 015°51'316.0
2017-Sep-18 22:49N 24°51' W 015°53'2315.5
2017-Sep-18 21:20N 24°31' W 016°06'1515.3
2017-Sep-18 20:20N 24°19' W 016°16'715.4
2017-Sep-18 19:52N 24°12' W 016°20'  
Track history (hours):
 
Tides and Currents Weather Stations Pressure Air Temp Water Temp Dewpoint Dewpoint Depression Visibility Wind Speed Wind Dir Waves Ship Positions

Oregon Trader

Last reported at 2017-Sep-24 21:58 UTC. Time now 2017-Sep-25 01:06 UTC.
Position N 49°52' W 002°33'.

Length 212 m; draft 8 m.

Type: Ship (hazmat cat A). MMSI: 256304000.

Date/timePositionNaut miles runAvg speedWind from/ knotsBaromVisibWave heightAir tempDewpointWater temp
2017-Sep-24 21:58N 49°52' W 002°33'715.6
2017-Sep-24 21:30N 49°50' W 002°44'815.3
2017-Sep-24 21:00N 49°47' W 002°55'814.8
2017-Sep-24 20:30N 49°44' W 003°06'714.8
2017-Sep-24 20:01N 49°41' W 003°15'914.7
2017-Sep-24 19:23N 49°36' W 003°28'815.5
2017-Sep-24 18:54N 49°32' W 003°38'1016.3
2017-Sep-24 18:17N 49°27' W 003°51'2216.0
2017-Sep-24 16:53N 49°16' W 004°20'4515.0
2017-Sep-24 13:55N 48°53' W 005°19'612.8
2017-Sep-24 13:29N 48°50' W 005°26'7415.3
2017-Sep-24 08:38N 47°47' W 006°23'  
2017-Sep-20 12:03N 32°18' W 010°06'114.4
2017-Sep-20 12:00N 32°17' W 010°06'1814.6
2017-Sep-20 10:48N 32°04' W 010°21'1614.6
2017-Sep-20 09:42N 31°52' W 010°33'514.6
2017-Sep-20 09:21N 31°48' W 010°37'514.4
2017-Sep-20 08:58N 31°44' W 010°40'4 7.2
2017-Sep-20 08:29N 31°40' W 010°41'814.4
2017-Sep-20 07:56N 31°34' W 010°47'2013.7
2017-Sep-20 06:29N 31°17' W 010°60'912.8
2017-Sep-20 05:47N 31°10' W 011°06'412.6
2017-Sep-20 05:29N 31°07' W 011°08'613.4
2017-Sep-20 05:00N 31°02' W 011°13'713.7
2017-Sep-20 04:30N 30°56' W 011°17'713.5
2017-Sep-20 04:00N 30°50' W 011°22'713.6
2017-Sep-20 03:30N 30°45' W 011°26'713.8
2017-Sep-20 02:59N 30°39' W 011°30'713.7
2017-Sep-20 02:29N 30°33' W 011°35'613.8
2017-Sep-20 02:00N 30°27' W 011°39'713.6
2017-Sep-20 01:30N 30°22' W 011°44'713.8
2017-Sep-20 01:00N 30°16' W 011°48'713.9
2017-Sep-20 00:31N 30°10' W 011°52'714.1
2017-Sep-20 00:00N 30°04' W 011°57'713.9
2017-Sep-19 23:28N 29°58' W 012°01'714.0
2017-Sep-19 23:00N 29°52' W 012°05'714.1
2017-Sep-19 22:30N 29°46' W 012°10'714.1
2017-Sep-19 22:00N 29°40' W 012°14'714.2
2017-Sep-19 21:30N 29°35' W 012°18'714.1
2017-Sep-19 21:00N 29°28' W 012°23'714.1
2017-Sep-19 20:30N 29°23' W 012°27'1214.2
2017-Sep-19 19:42N 29°14' W 012°35'314.2
2017-Sep-19 19:30N 29°11' W 012°37'714.0
2017-Sep-19 19:00N 29°06' W 012°42'713.7
2017-Sep-19 18:30N 29°00' W 012°46'713.7
2017-Sep-19 18:00N 28°54' W 012°51'714.1
2017-Sep-19 17:30N 28°49' W 012°55'913.9
2017-Sep-19 16:53N 28°41' W 013°00'513.7
2017-Sep-19 16:30N 28°37' W 013°03'713.8
2017-Sep-19 16:00N 28°31' W 013°08'714.0
2017-Sep-19 15:30N 28°25' W 013°12'714.2
2017-Sep-19 15:00N 28°19' W 013°17'714.0
2017-Sep-19 14:30N 28°14' W 013°21'714.1
2017-Sep-19 14:00N 28°08' W 013°26'714.3
2017-Sep-19 13:30N 28°02' W 013°30'714.5
2017-Sep-19 13:00N 27°56' W 013°34'714.6
2017-Sep-19 12:30N 27°50' W 013°39'815.7
2017-Sep-19 12:00N 27°43' W 013°44'816.4
2017-Sep-19 11:30N 27°36' W 013°49'917.1
2017-Sep-19 11:00N 27°29' W 013°55'816.8
2017-Sep-19 10:30N 27°22' W 014°00'917.1
2017-Sep-19 10:00N 27°15' W 014°05'917.1
2017-Sep-19 09:30N 27°08' W 014°10'816.4
2017-Sep-19 09:00N 27°01' W 014°15'816.5
2017-Sep-19 08:30N 26°54' W 014°21'816.4
2017-Sep-19 08:00N 26°48' W 014°26'916.2
2017-Sep-19 07:28N 26°40' W 014°31'1515.6
2017-Sep-19 06:33N 26°28' W 014°40'215.2
2017-Sep-19 06:26N 26°27' W 014°41'11315.2
2017-Sep-18 23:01N 24°53' W 015°51'316.0
2017-Sep-18 22:49N 24°51' W 015°53'2315.5
2017-Sep-18 21:20N 24°31' W 016°06'1515.3
2017-Sep-18 20:20N 24°19' W 016°16'715.4
2017-Sep-18 19:52N 24°12' W 016°20'  

Dump ship's entire track history